createdAt,value
2023-04-06T00:02:00.612Z,20.63
2023-04-06T00:04:02.210Z,20.67
2023-04-06T00:06:03.582Z,20.71
2023-04-06T00:08:07.535Z,20.80
2023-04-06T00:10:08.863Z,20.85
2023-04-06T00:12:10.258Z,20.92
2023-04-06T00:14:11.622Z,20.99
2023-04-06T00:16:12.962Z,21.08
2023-04-06T00:18:14.364Z,21.16
2023-04-06T00:20:15.707Z,21.25
2023-04-06T00:22:17.023Z,21.35
2023-04-06T00:24:18.366Z,21.41
2023-04-06T00:26:19.687Z,21.50
2023-04-06T00:28:26.287Z,21.52
2023-04-06T00:30:27.596Z,21.53
2023-04-06T00:32:29.034Z,21.53
2023-04-06T00:34:30.504Z,21.49
2023-04-06T00:36:31.812Z,21.47
2023-04-06T00:38:33.124Z,21.44
2023-04-06T00:40:35.874Z,21.39
2023-04-06T00:42:37.281Z,21.37
2023-04-06T00:44:38.650Z,21.30
2023-04-06T00:46:39.988Z,21.28
2023-04-06T00:48:41.839Z,21.19
2023-04-06T00:50:43.188Z,21.17
2023-04-06T00:52:44.535Z,21.07
2023-04-06T00:54:45.922Z,20.95
2023-04-06T00:56:47.263Z,20.85
2023-04-06T00:58:48.622Z,20.81
2023-04-06T01:00:49.946Z,20.78
2023-04-06T01:02:51.479Z,20.76
2023-04-06T01:04:52.819Z,20.72
2023-04-06T01:06:54.123Z,20.73
2023-04-06T01:08:55.489Z,20.21
2023-04-06T01:10:56.835Z,20.67
2023-04-06T01:12:58.159Z,20.63
2023-04-06T01:14:59.499Z,20.61
2023-04-06T01:17:01.543Z,20.60
2023-04-06T01:19:02.879Z,20.60
2023-04-06T01:21:04.250Z,20.58
2023-04-06T01:23:05.783Z,20.61
2023-04-06T01:25:07.117Z,20.63
2023-04-06T01:27:08.488Z,20.66
2023-04-06T01:29:09.967Z,20.69
2023-04-06T01:31:11.413Z,20.74
2023-04-06T01:33:12.758Z,20.80
2023-04-06T01:35:14.161Z,20.92
2023-04-06T01:37:15.666Z,21.00
2023-04-06T01:39:17.179Z,21.09
2023-04-06T01:41:18.612Z,21.18
2023-04-06T01:43:19.958Z,21.27
2023-04-06T01:45:22.021Z,21.34
2023-04-06T01:47:23.406Z,21.42
2023-04-06T01:49:24.734Z,21.52
2023-04-06T01:51:26.868Z,21.57
2023-04-06T01:53:28.212Z,21.58
2023-04-06T01:55:29.523Z,21.62
2023-04-06T01:57:30.875Z,21.55
2023-04-06T01:59:32.261Z,21.50
2023-04-06T02:01:33.658Z,21.48
2023-04-06T02:03:35.283Z,21.42
2023-04-06T02:05:39.823Z,21.41
2023-04-06T02:07:41.172Z,21.40
2023-04-06T02:09:42.535Z,21.33
2023-04-06T02:11:43.843Z,21.27
2023-04-06T02:13:45.382Z,21.21
2023-04-06T02:15:46.796Z,21.13
2023-04-06T02:17:48.206Z,21.08
2023-04-06T02:19:49.566Z,21.02
2023-04-06T02:21:50.906Z,20.97
2023-04-06T02:23:52.261Z,20.92
2023-04-06T02:25:53.602Z,20.85
2023-04-06T02:27:54.963Z,20.82
2023-04-06T02:29:56.310Z,20.76
2023-04-06T02:31:57.659Z,20.68
2023-04-06T02:33:59.005Z,20.60
2023-04-06T02:36:00.505Z,20.54
2023-04-06T02:38:01.847Z,20.49
2023-04-06T02:40:03.679Z,20.45
2023-04-06T02:42:05.038Z,20.54
2023-04-06T02:44:06.420Z,20.42
2023-04-06T02:46:07.745Z,20.26
2023-04-06T02:48:09.101Z,20.16
2023-04-06T02:50:10.747Z,20.05
2023-04-06T02:52:12.171Z,19.99
2023-04-06T02:54:13.576Z,20.07
2023-04-06T02:56:14.905Z,20.31
2023-04-06T02:58:16.332Z,20.37
2023-04-06T03:00:17.723Z,20.46
2023-04-06T03:02:19.077Z,20.60
2023-04-06T03:04:20.732Z,20.75
2023-04-06T03:06:22.148Z,20.88
2023-04-06T03:08:23.492Z,20.88
2023-04-06T03:10:24.807Z,21.02
2023-04-06T03:12:26.285Z,21.11
2023-04-06T03:14:27.662Z,21.15
2023-04-06T03:16:28.967Z,21.20
2023-04-06T03:18:30.320Z,21.27
2023-04-06T03:20:31.671Z,21.31
2023-04-06T03:22:32.978Z,21.34
2023-04-06T03:24:34.438Z,21.35
2023-04-06T03:26:35.847Z,21.37
2023-04-06T03:28:37.193Z,21.38
2023-04-06T03:30:38.522Z,21.40
2023-04-06T03:32:40.023Z,21.38
2023-04-06T03:34:41.381Z,21.33
2023-04-06T03:36:42.783Z,21.29
2023-04-06T03:38:44.133Z,21.28
2023-04-06T03:40:45.454Z,21.20
2023-04-06T03:42:46.788Z,21.15
2023-04-06T03:44:48.106Z,21.08
2023-04-06T03:46:49.458Z,21.02
2023-04-06T03:48:50.985Z,20.95
2023-04-06T03:50:52.335Z,20.88
2023-04-06T03:52:53.644Z,20.88
2023-04-06T03:54:55.046Z,20.81
2023-04-06T03:56:56.478Z,20.74
2023-04-06T03:58:57.915Z,20.67
2023-04-06T04:00:59.297Z,20.58
2023-04-06T04:03:02.219Z,20.50
2023-04-06T04:05:03.603Z,20.44
2023-04-06T04:07:05.046Z,20.36
2023-04-06T04:09:06.598Z,20.32
2023-04-06T04:11:08.076Z,20.27
2023-04-06T04:13:09.487Z,20.22
2023-04-06T04:15:10.861Z,20.17
2023-04-06T04:17:12.265Z,20.13
2023-04-06T04:19:13.599Z,20.08
2023-04-06T04:21:15.018Z,20.06
2023-04-06T04:23:16.414Z,20.06
2023-04-06T04:25:17.736Z,20.09
2023-04-06T04:27:19.057Z,20.12
2023-04-06T04:29:22.364Z,20.20
2023-04-06T04:31:23.846Z,20.33
2023-04-06T04:33:25.339Z,20.46
2023-04-06T04:35:26.777Z,20.58
2023-04-06T04:37:28.132Z,20.74
2023-04-06T04:39:29.530Z,20.83
2023-04-06T04:41:30.879Z,20.93
2023-04-06T04:43:32.977Z,21.01
2023-04-06T04:45:34.567Z,21.09
2023-04-06T04:47:36.152Z,21.13
2023-04-06T04:49:37.613Z,21.16
2023-04-06T04:51:39.000Z,21.18
2023-04-06T04:53:40.339Z,21.24
2023-04-06T04:55:41.857Z,21.23
2023-04-06T04:57:43.218Z,21.29
2023-04-06T04:59:44.805Z,21.28
2023-04-06T05:01:55.021Z,21.25
2023-04-06T05:03:57.056Z,21.22
2023-04-06T05:05:58.392Z,21.17
2023-04-06T05:07:59.716Z,21.11
2023-04-06T05:10:01.133Z,21.06
2023-04-06T05:12:02.496Z,20.98
2023-04-06T05:14:03.834Z,20.92
2023-04-06T05:16:05.651Z,20.86
2023-04-06T05:18:07.248Z,20.81
2023-04-06T05:20:08.584Z,20.75
2023-04-06T05:22:09.920Z,20.70
2023-04-06T05:24:11.360Z,20.68
2023-04-06T05:26:12.752Z,20.60
2023-04-06T05:28:16.851Z,20.51
2023-04-06T05:30:18.261Z,20.45
2023-04-06T05:32:23.106Z,20.38
2023-04-06T05:34:24.459Z,20.33
2023-04-06T05:36:28.410Z,20.29
2023-04-06T05:38:30.185Z,20.25
2023-04-06T05:40:31.535Z,20.23
2023-04-06T05:42:32.857Z,20.22
2023-04-06T05:44:34.212Z,20.21
2023-04-06T05:46:35.723Z,20.22
2023-04-06T05:48:37.109Z,20.24
2023-04-06T05:50:38.444Z,20.28
2023-04-06T05:52:39.863Z,20.33
2023-04-06T05:54:41.212Z,20.44
2023-04-06T05:56:42.517Z,20.51
2023-04-06T05:58:43.961Z,20.65
2023-04-06T06:00:46.954Z,20.77
2023-04-06T06:02:48.439Z,20.89
2023-04-06T06:04:49.866Z,21.00
2023-04-06T06:06:51.335Z,21.07
2023-04-06T06:08:52.677Z,21.11
2023-04-06T06:10:53.983Z,21.17
2023-04-06T06:12:55.296Z,21.21
2023-04-06T06:14:56.629Z,21.25
2023-04-06T06:16:57.941Z,21.29
2023-04-06T06:18:59.284Z,21.28
2023-04-06T06:21:01.219Z,21.28
2023-04-06T06:23:02.560Z,21.28
2023-04-06T06:25:03.908Z,21.26
2023-04-06T06:27:05.227Z,21.18
2023-04-06T06:29:07.024Z,21.11
2023-04-06T06:31:08.594Z,21.03
2023-04-06T06:33:09.939Z,20.96
2023-04-06T06:35:11.294Z,20.88
2023-04-06T06:37:12.617Z,20.80
2023-04-06T06:39:13.950Z,20.74
2023-04-06T06:41:15.248Z,20.69
2023-04-06T06:43:16.767Z,20.62
2023-04-06T06:45:18.124Z,20.53
2023-04-06T06:47:19.547Z,20.45
2023-04-06T06:49:20.979Z,20.40
2023-04-06T06:51:22.294Z,20.35
2023-04-06T06:53:23.638Z,20.30
2023-04-06T06:55:24.958Z,20.24
2023-04-06T06:57:26.336Z,20.20
2023-04-06T06:59:27.956Z,20.17
2023-04-06T07:01:29.411Z,20.16
2023-04-06T07:03:31.013Z,20.16
2023-04-06T07:05:32.360Z,20.20
2023-04-06T07:07:33.845Z,20.24
2023-04-06T07:09:35.544Z,20.30
2023-04-06T07:11:36.961Z,20.34
2023-04-06T07:13:38.381Z,20.46
2023-04-06T07:15:39.739Z,20.57
2023-04-06T07:17:42.506Z,20.71
2023-04-06T07:19:43.917Z,20.83
2023-04-06T07:21:45.312Z,20.95
2023-04-06T07:23:49.015Z,21.06
2023-04-06T07:25:53.260Z,21.12
2023-04-06T07:27:54.666Z,21.19
2023-04-06T07:29:56.064Z,21.25
2023-04-06T07:31:57.545Z,21.28
2023-04-06T07:33:58.957Z,21.32
2023-04-06T07:36:00.561Z,21.35
2023-04-06T07:38:02.176Z,21.33
2023-04-06T07:40:03.523Z,21.35
2023-04-06T07:42:04.858Z,21.35
2023-04-06T07:44:06.337Z,21.29
2023-04-06T07:46:08.015Z,21.24
2023-04-06T07:48:09.504Z,21.21
2023-04-06T07:50:11.076Z,21.18
2023-04-06T07:52:12.415Z,21.17
2023-04-06T07:54:13.756Z,21.10
2023-04-06T07:56:16.485Z,21.04
2023-04-06T07:58:18.014Z,21.00
2023-04-06T08:00:19.546Z,20.96
2023-04-06T08:02:21.239Z,20.92
2023-04-06T08:04:22.636Z,20.90
2023-04-06T08:06:24.015Z,20.86
2023-04-06T08:08:25.335Z,20.84
2023-04-06T08:10:26.673Z,20.80
2023-04-06T08:12:28.009Z,20.76
2023-04-06T08:14:29.328Z,20.73
2023-04-06T08:16:30.960Z,20.71
2023-04-06T08:18:32.259Z,20.69
2023-04-06T08:20:33.600Z,20.69
2023-04-06T08:22:34.986Z,20.66
2023-04-06T08:24:36.349Z,20.65
2023-04-06T08:26:37.696Z,20.64
2023-04-06T08:28:39.054Z,20.65
2023-04-06T08:30:40.355Z,20.67
2023-04-06T08:32:42.450Z,19.93
2023-04-06T08:34:43.832Z,20.73
2023-04-06T08:36:46.520Z,20.79
2023-04-06T08:38:47.853Z,20.84
2023-04-06T08:40:50.913Z,20.93
2023-04-06T08:42:52.259Z,21.03
2023-04-06T08:44:53.606Z,21.10
2023-04-06T08:46:55.021Z,21.19
2023-04-06T08:48:56.353Z,21.26
2023-04-06T08:51:00.744Z,21.32
2023-04-06T08:53:02.210Z,21.38
2023-04-06T08:55:03.972Z,21.43
2023-04-06T08:57:05.435Z,21.47
2023-04-06T08:59:06.819Z,21.50
2023-04-06T09:01:09.311Z,21.51
2023-04-06T09:03:10.926Z,21.50
2023-04-06T09:05:12.372Z,21.49
2023-04-06T09:07:13.704Z,21.48
2023-04-06T09:09:15.453Z,21.49
2023-04-06T09:11:16.874Z,21.47
2023-04-06T09:13:18.248Z,21.44
2023-04-06T09:15:19.967Z,21.40
2023-04-06T09:17:22.427Z,21.37
2023-04-06T09:19:23.797Z,21.33
2023-04-06T09:21:26.773Z,21.30
2023-04-06T09:23:28.169Z,21.27
2023-04-06T09:25:29.526Z,21.21
2023-04-06T09:27:31.189Z,21.18
2023-04-06T09:29:33.045Z,21.15
2023-04-06T09:31:34.553Z,21.11
2023-04-06T09:33:38.493Z,21.06
2023-04-06T09:35:42.896Z,21.05
2023-04-06T09:37:44.383Z,21.01
2023-04-06T09:39:45.732Z,20.98
2023-04-06T09:41:47.692Z,20.94
2023-04-06T09:43:49.062Z,20.93
2023-04-06T09:45:50.392Z,20.91
2023-04-06T09:47:54.884Z,20.89
2023-04-06T09:49:56.446Z,20.88
2023-04-06T09:51:57.785Z,20.87
2023-04-06T09:54:03.936Z,20.89
2023-04-06T09:56:05.516Z,20.90
2023-04-06T09:58:18.863Z,20.91
2023-04-06T10:00:21.756Z,20.95
2023-04-06T10:02:23.229Z,21.02
2023-04-06T10:04:24.579Z,21.07
2023-04-06T10:06:26.523Z,21.15
2023-04-06T10:08:30.907Z,21.20
2023-04-06T10:10:34.032Z,21.27
2023-04-06T10:12:35.417Z,21.32
2023-04-06T10:14:38.192Z,21.40
2023-04-06T10:16:39.549Z,21.46
2023-04-06T10:18:40.968Z,21.48
2023-04-06T10:20:42.295Z,21.56
2023-04-06T10:22:43.672Z,21.57
2023-04-06T10:24:45.091Z,21.62
2023-04-06T10:26:46.677Z,21.62
2023-04-06T10:28:47.996Z,21.62
2023-04-06T10:30:49.327Z,21.62
2023-04-06T10:32:50.689Z,21.63
2023-04-06T10:34:52.080Z,21.61
2023-04-06T10:36:53.443Z,21.63
2023-04-06T10:38:54.755Z,21.57
2023-04-06T10:40:56.064Z,21.50
2023-04-06T10:42:57.875Z,21.48
2023-04-06T10:44:59.216Z,21.44
2023-04-06T10:47:03.665Z,20.69
2023-04-06T10:49:05.047Z,21.39
2023-04-06T10:51:06.837Z,21.36
2023-04-06T10:53:08.208Z,21.29
2023-04-06T10:55:10.966Z,21.22
2023-04-06T10:57:12.413Z,21.12
2023-04-06T10:59:13.760Z,21.01
2023-04-06T11:01:15.111Z,20.94
2023-04-06T11:03:16.515Z,20.87
2023-04-06T11:05:18.529Z,20.81
2023-04-06T11:07:19.890Z,20.75
2023-04-06T11:09:21.726Z,20.70
2023-04-06T11:11:23.054Z,20.64
2023-04-06T11:13:27.229Z,20.60
2023-04-06T11:15:28.572Z,20.58
2023-04-06T11:17:30.001Z,20.60
2023-04-06T11:19:31.395Z,20.63
2023-04-06T11:21:33.402Z,20.69
2023-04-06T11:23:34.730Z,20.75
2023-04-06T11:25:36.191Z,20.81
2023-04-06T11:27:37.519Z,20.83
2023-04-06T11:29:39.139Z,20.87
2023-04-06T11:31:40.524Z,20.96
2023-04-06T11:33:41.903Z,21.01
2023-04-06T11:35:43.373Z,21.03
2023-04-06T11:37:44.979Z,21.11
2023-04-06T11:39:46.293Z,21.14
2023-04-06T11:41:47.602Z,21.19
2023-04-06T11:43:48.933Z,21.18
2023-04-06T11:45:50.475Z,21.21
2023-04-06T11:47:51.829Z,21.23
2023-04-06T11:49:53.219Z,21.26
2023-04-06T11:51:54.530Z,21.28
2023-04-06T11:53:56.077Z,21.27
2023-04-06T11:55:57.795Z,21.27
2023-04-06T11:57:59.324Z,21.27
2023-04-06T12:00:00.637Z,21.26
2023-04-06T12:02:02.212Z,21.22
2023-04-06T12:04:03.742Z,21.30
2023-04-06T12:06:05.408Z,21.41
2023-04-06T12:08:06.840Z,21.44
2023-04-06T12:10:08.186Z,21.48
2023-04-06T12:12:09.925Z,21.47
2023-04-06T12:14:11.601Z,21.46
2023-04-06T12:16:13.007Z,21.39
2023-04-06T12:18:14.376Z,21.32
2023-04-06T12:20:25.715Z,21.28
2023-04-06T12:22:28.092Z,21.19
2023-04-06T12:24:29.804Z,21.14
2023-04-06T12:26:31.367Z,21.09
2023-04-06T12:28:32.764Z,21.01
2023-04-06T12:30:34.250Z,20.97
2023-04-06T12:32:35.831Z,20.89
2023-04-06T12:34:40.055Z,20.16
2023-04-06T12:36:41.633Z,19.44
2023-04-06T12:38:43.043Z,18.96
2023-04-06T12:40:44.403Z,18.94
2023-04-06T12:42:47.174Z,18.91
2023-04-06T12:44:48.508Z,19.05
2023-04-06T12:46:49.918Z,19.50
2023-04-06T12:48:54.502Z,19.39
2023-04-06T12:50:56.175Z,19.50
2023-04-06T12:52:57.575Z,20.84
2023-04-06T12:55:00.516Z,22.16
2023-04-06T12:57:02.277Z,22.83
2023-04-06T12:59:06.394Z,23.04
2023-04-06T13:01:08.121Z,23.26
2023-04-06T13:03:10.100Z,23.36
2023-04-06T13:05:11.535Z,23.47
2023-04-06T13:07:12.909Z,23.38
2023-04-06T13:09:14.266Z,23.47
2023-04-06T13:11:15.647Z,23.14
2023-04-06T13:13:17.032Z,22.51
2023-04-06T13:15:18.489Z,22.06
2023-04-06T13:17:19.817Z,22.48
2023-04-06T13:19:21.163Z,22.81
2023-04-06T13:21:22.483Z,23.00
2023-04-06T13:23:23.918Z,23.23
2023-04-06T13:25:25.451Z,22.82
2023-04-06T13:27:28.359Z,22.27
2023-04-06T13:29:29.761Z,22.06
2023-04-06T13:31:31.123Z,22.00
2023-04-06T13:33:32.543Z,22.06
2023-04-06T13:35:34.026Z,22.71
2023-04-06T13:37:35.493Z,23.27
2023-04-06T13:39:37.305Z,23.39
2023-04-06T13:41:38.696Z,23.03
2023-04-06T13:43:40.295Z,23.09
2023-04-06T13:45:41.955Z,22.96
2023-04-06T13:47:43.373Z,23.05
2023-04-06T13:49:44.704Z,22.97
2023-04-06T13:51:46.228Z,23.10
2023-04-06T13:53:47.555Z,23.05
2023-04-06T13:55:48.852Z,22.94
2023-04-06T13:57:50.562Z,23.11
2023-04-06T13:59:51.953Z,23.02
2023-04-06T14:01:53.343Z,22.73
2023-04-06T14:03:54.917Z,22.58
2023-04-06T14:05:58.456Z,22.32
2023-04-06T14:07:59.881Z,22.66
2023-04-06T14:10:02.190Z,23.16
2023-04-06T14:12:03.481Z,23.28
2023-04-06T14:14:04.786Z,22.98
2023-04-06T14:16:06.085Z,22.31
2023-04-06T14:18:07.653Z,22.10
2023-04-06T14:20:09.040Z,22.21
2023-04-06T14:22:11.385Z,22.29
2023-04-06T14:24:13.605Z,22.49
2023-04-06T14:26:15.003Z,22.71
2023-04-06T14:28:16.296Z,22.66
2023-04-06T14:30:18.120Z,22.58
2023-04-06T14:32:19.509Z,22.52
2023-04-06T14:34:22.265Z,22.56
2023-04-06T14:36:23.687Z,22.51
2023-04-06T14:38:25.053Z,22.54
2023-04-06T14:40:26.353Z,22.79
2023-04-06T14:42:27.683Z,22.76
2023-04-06T14:44:29.073Z,22.66
2023-04-06T14:46:30.447Z,22.62
2023-04-06T14:48:31.800Z,22.14
2023-04-06T14:50:33.108Z,21.81
2023-04-06T14:52:34.436Z,21.64
2023-04-06T14:54:35.740Z,21.54
2023-04-06T14:56:38.690Z,21.49
2023-04-06T14:58:40.028Z,21.42
2023-04-06T15:00:41.392Z,21.38
2023-04-06T15:02:44.555Z,21.35
2023-04-06T15:04:46.102Z,21.32
2023-04-06T15:06:50.450Z,21.30
2023-04-06T15:08:52.081Z,21.31
2023-04-06T15:10:53.515Z,21.31
2023-04-06T15:12:54.997Z,21.36
2023-04-06T15:14:56.347Z,21.36
2023-04-06T15:16:57.643Z,21.37
2023-04-06T15:18:58.956Z,21.39
2023-04-06T15:21:00.412Z,21.41
2023-04-06T15:23:01.733Z,21.43
2023-04-06T15:25:03.080Z,21.40
2023-04-06T15:27:04.407Z,21.43
2023-04-06T15:29:05.741Z,21.42
2023-04-06T15:31:07.713Z,21.41
2023-04-06T15:33:09.141Z,21.43
2023-04-06T15:35:10.513Z,21.38
2023-04-06T15:37:12.000Z,21.39
2023-04-06T15:39:16.348Z,21.41
2023-04-06T15:41:17.759Z,21.41
2023-04-06T15:43:19.106Z,21.41
2023-04-06T15:45:20.478Z,21.43
2023-04-06T15:47:22.013Z,22.13
2023-04-06T15:49:23.390Z,22.63
2023-04-06T15:51:24.752Z,22.66
2023-04-06T15:53:26.414Z,22.47
2023-04-06T15:55:27.761Z,22.38
2023-04-06T15:57:29.055Z,22.67
2023-04-06T15:59:30.509Z,22.71
2023-04-06T16:01:31.944Z,22.89
2023-04-06T16:03:33.525Z,22.55
2023-04-06T16:05:39.955Z,22.42
2023-04-06T16:07:50.035Z,22.35
2023-04-06T16:09:52.192Z,22.36
2023-04-06T16:11:53.501Z,22.30
2023-04-06T16:13:55.614Z,22.26
2023-04-06T16:15:57.198Z,22.18
2023-04-06T16:17:58.580Z,22.15
2023-04-06T16:19:59.962Z,22.10
2023-04-06T16:22:02.198Z,21.99
2023-04-06T16:24:05.022Z,21.64
2023-04-06T16:26:09.346Z,21.46
2023-04-06T16:28:10.876Z,21.40
2023-04-06T16:30:12.276Z,21.34
2023-04-06T16:32:14.008Z,21.33
2023-04-06T16:34:15.540Z,21.29
2023-04-06T16:36:16.889Z,21.22
2023-04-06T16:38:18.220Z,21.20
2023-04-06T16:40:19.497Z,21.18
2023-04-06T16:42:21.310Z,21.16
2023-04-06T16:44:22.629Z,21.14
2023-04-06T16:46:23.947Z,21.12
2023-04-06T16:48:25.423Z,21.09
2023-04-06T16:50:27.014Z,21.07
2023-04-06T16:52:28.350Z,21.09
2023-04-06T16:54:29.684Z,21.05
2023-04-06T16:56:34.063Z,21.03
2023-04-06T16:58:35.422Z,21.05
2023-04-06T17:00:36.725Z,21.08
2023-04-06T17:02:38.225Z,21.12
2023-04-06T17:04:39.584Z,21.16
2023-04-06T17:06:43.838Z,21.18
2023-04-06T17:08:45.527Z,21.22
2023-04-06T17:10:59.310Z,21.24
2023-04-06T17:13:06.228Z,21.32
2023-04-06T17:15:07.539Z,21.36
2023-04-06T17:17:08.877Z,21.36
2023-04-06T17:19:10.283Z,21.37
2023-04-06T17:21:14.437Z,21.40
2023-04-06T17:23:16.592Z,21.40
2023-04-06T17:25:18.014Z,21.42
2023-04-06T17:27:22.862Z,21.39
2023-04-06T17:29:27.160Z,21.39
2023-04-06T17:31:28.505Z,21.39
2023-04-06T17:33:32.514Z,21.47
2023-04-06T17:35:33.862Z,21.39
2023-04-06T17:37:36.014Z,21.30
2023-04-06T17:39:37.303Z,21.59
2023-04-06T17:41:38.675Z,22.30
2023-04-06T17:43:39.982Z,22.68
2023-04-06T17:45:41.358Z,22.55
2023-04-06T17:47:42.707Z,22.71
2023-04-06T17:49:44.035Z,22.96
2023-04-06T17:51:45.499Z,23.09
2023-04-06T17:53:46.793Z,23.00
2023-04-06T17:55:48.095Z,23.12
2023-04-06T17:57:49.500Z,23.25
2023-04-06T17:59:50.840Z,23.22
2023-04-06T18:01:52.231Z,23.11
2023-04-06T18:03:53.745Z,22.81
2023-04-06T18:05:55.510Z,22.69
2023-04-06T18:07:56.909Z,23.08
2023-04-06T18:10:01.507Z,22.57
2023-04-06T18:12:02.892Z,22.37
2023-04-06T18:14:04.193Z,22.20
2023-04-06T18:16:08.694Z,22.17
2023-04-06T18:18:10.305Z,22.10
2023-04-06T18:20:13.364Z,22.65
2023-04-06T18:22:19.319Z,21.93
2023-04-06T18:24:37.556Z,21.62
2023-04-06T18:26:41.931Z,22.09
2023-04-06T18:28:43.261Z,22.31
2023-04-06T18:30:44.592Z,22.50
2023-04-06T18:32:45.928Z,22.47
2023-04-06T18:34:50.205Z,22.43
2023-04-06T18:36:51.586Z,22.32
2023-04-06T18:38:52.953Z,21.91
2023-04-06T18:40:54.254Z,21.67
2023-04-06T18:42:55.566Z,21.74
2023-04-06T18:44:56.944Z,22.27
2023-04-06T18:46:58.284Z,22.07
2023-04-06T18:48:59.615Z,21.84
2023-04-06T18:51:02.269Z,21.99
2023-04-06T18:53:03.603Z,22.09
2023-04-06T18:55:05.318Z,21.91
2023-04-06T18:57:10.092Z,22.47
2023-04-06T18:59:12.137Z,22.63
2023-04-06T19:01:13.435Z,22.44
2023-04-06T19:03:14.909Z,22.47
2023-04-06T19:05:19.614Z,22.45
2023-04-06T19:07:22.247Z,22.49
2023-04-06T19:11:25.263Z,22.73
2023-04-06T19:13:28.708Z,23.01
2023-04-06T19:15:30.200Z,23.03
2023-04-06T19:17:31.555Z,22.81
2023-04-06T19:19:32.985Z,22.22
2023-04-06T19:21:34.313Z,21.89
2023-04-06T19:23:36.222Z,22.20
2023-04-06T19:25:37.568Z,22.40
2023-04-06T19:27:39.476Z,22.44
2023-04-06T19:31:42.125Z,22.49
2023-04-06T19:33:43.466Z,22.35
2023-04-06T19:35:44.830Z,22.75
2023-04-06T19:37:46.207Z,22.83
2023-04-06T19:39:47.806Z,22.65
2023-04-06T19:41:49.161Z,22.40
2023-04-06T19:43:50.447Z,22.81
2023-04-06T19:45:51.880Z,22.48
2023-04-06T19:47:53.242Z,22.76
2023-04-06T19:49:54.618Z,22.79
2023-04-06T19:51:56.103Z,22.52
2023-04-06T19:53:57.421Z,23.00
2023-04-06T19:55:58.766Z,22.82
2023-04-06T19:58:00.122Z,22.08
2023-04-06T20:00:01.427Z,21.54
2023-04-06T20:02:02.927Z,21.49
2023-04-06T20:04:04.609Z,21.60
2023-04-06T20:06:05.962Z,21.68
2023-04-06T20:08:07.351Z,21.39
2023-04-06T20:10:08.648Z,21.70
2023-04-06T20:12:09.959Z,21.86
2023-04-06T20:14:11.604Z,21.89
2023-04-06T20:16:15.668Z,21.95
2023-04-06T20:18:17.043Z,22.01
2023-04-06T20:20:24.556Z,22.02
2023-04-06T20:22:26.035Z,22.21
2023-04-06T20:24:27.331Z,22.32
2023-04-06T20:26:28.628Z,22.34
2023-04-06T20:28:29.919Z,22.30
2023-04-06T20:30:31.259Z,22.39
2023-04-06T20:32:33.754Z,22.37
2023-04-06T20:34:35.102Z,22.38
2023-04-06T20:36:36.438Z,22.42
2023-04-06T20:38:37.806Z,22.41
2023-04-06T20:40:39.992Z,22.44
2023-04-06T20:42:41.834Z,22.45
2023-04-06T20:44:43.283Z,22.43
2023-04-06T20:46:45.757Z,22.41
2023-04-06T20:48:47.199Z,22.17
2023-04-06T20:50:49.457Z,22.02
2023-04-06T20:52:54.391Z,21.89
2023-04-06T20:54:56.374Z,22.28
2023-04-06T20:57:01.070Z,22.50
2023-04-06T20:59:04.883Z,22.33
2023-04-06T21:01:06.258Z,22.46
2023-04-06T21:03:07.883Z,22.32
2023-04-06T21:05:09.321Z,22.22
2023-04-06T21:07:10.816Z,22.43
2023-04-06T21:09:12.188Z,22.64
2023-04-06T21:11:13.541Z,22.30
2023-04-06T21:13:14.851Z,22.14
2023-04-06T21:15:16.348Z,22.03
2023-04-06T21:17:17.726Z,22.01
2023-04-06T21:19:19.091Z,22.02
2023-04-06T21:21:20.471Z,21.99
2023-04-06T21:23:23.042Z,22.08
2023-04-06T21:25:24.491Z,22.17
2023-04-06T21:27:25.835Z,22.15
2023-04-06T21:29:27.128Z,22.07
2023-04-06T21:31:28.447Z,22.04
2023-04-06T21:33:29.802Z,22.05
2023-04-06T21:35:31.123Z,22.11
2023-04-06T21:37:32.491Z,22.17
2023-04-06T21:39:33.882Z,22.00
2023-04-06T21:41:35.346Z,17.84
2023-04-06T21:43:36.698Z,16.16
2023-04-06T21:45:38.002Z,18.24
2023-04-06T21:47:39.943Z,19.36
2023-04-06T21:49:41.300Z,19.96
2023-04-06T21:51:42.606Z,20.36
2023-04-06T21:53:43.948Z,20.63
2023-04-06T21:55:45.314Z,20.84
2023-04-06T21:57:46.676Z,21.03
2023-04-06T21:59:48.009Z,21.19
2023-04-06T22:01:49.380Z,21.30
2023-04-06T22:03:50.850Z,21.41
2023-04-06T22:05:52.483Z,21.47
2023-04-06T22:07:53.901Z,21.56
2023-04-06T22:09:55.258Z,21.61
2023-04-06T22:11:56.592Z,21.65
2023-04-06T22:13:57.947Z,21.69
2023-04-06T22:15:59.325Z,21.72
2023-04-06T22:18:01.067Z,21.76
2023-04-06T22:20:02.407Z,20.93
2023-04-06T22:22:03.778Z,21.77
2023-04-06T22:24:05.058Z,21.78
2023-04-06T22:26:06.733Z,21.82
2023-04-06T22:28:08.149Z,21.79
2023-04-06T22:30:09.505Z,21.77
2023-04-06T22:32:11.043Z,21.78
2023-04-06T22:34:12.467Z,21.78
2023-04-06T22:36:13.796Z,21.72
2023-04-06T22:38:17.183Z,21.66
2023-04-06T22:40:18.562Z,21.59
2023-04-06T22:42:19.993Z,21.52
2023-04-06T22:44:21.383Z,21.43
2023-04-06T22:46:23.345Z,21.36
2023-04-06T22:48:24.789Z,21.26
2023-04-06T22:50:26.316Z,21.20
2023-04-06T22:52:27.723Z,21.14
2023-04-06T22:54:29.037Z,21.05
2023-04-06T22:56:30.449Z,21.01
2023-04-06T22:58:31.835Z,20.97
2023-04-06T23:00:33.160Z,20.90
2023-04-06T23:02:34.650Z,20.87
2023-04-06T23:04:36.338Z,20.86
2023-04-06T23:06:37.668Z,20.85
2023-04-06T23:08:38.964Z,20.81
2023-04-06T23:10:42.086Z,20.78
2023-04-06T23:12:43.498Z,20.72
2023-04-06T23:14:44.881Z,20.69
2023-04-06T23:16:46.353Z,20.65
2023-04-06T23:18:47.698Z,20.65
2023-04-06T23:20:49.040Z,20.65
2023-04-06T23:22:50.478Z,20.64
2023-04-06T23:24:51.860Z,20.63
2023-04-06T23:26:53.217Z,20.63
2023-04-06T23:28:55.248Z,20.64
2023-04-06T23:30:56.674Z,20.65
2023-04-06T23:32:58.059Z,20.67
2023-04-06T23:34:59.422Z,20.70
2023-04-06T23:37:03.658Z,20.74
2023-04-06T23:39:05.000Z,20.77
2023-04-06T23:41:06.499Z,20.84
2023-04-06T23:43:07.798Z,20.90
2023-04-06T23:45:09.095Z,20.98
2023-04-06T23:47:10.825Z,21.07
2023-04-06T23:49:12.216Z,21.15
2023-04-06T23:51:13.530Z,21.22
2023-04-06T23:53:14.924Z,21.27
2023-04-06T23:55:16.284Z,21.32
2023-04-06T23:57:17.582Z,21.38
2023-04-06T23:59:18.932Z,21.43
